Markelsville, Pennsylvania
Current Conditions -  °F | °C
As of 4:56 AM on Friday 31 Oct 2014 (Local Time) from KCXY Reporting Station
Overcast Overcast  
Wind Chill: 48°   Ceiling: 6000
Heat Index: 48°   Visibility: 10mi
Dew Point: 37°   Wind: 3mph
Humidity: 66%   Direction: 60°ENE
Pressure: 30.01"   Gusts: NA
Location:  40.4932°N, 77.217°W
Report Text: KCXY 310856Z AUTO 06003KT 10SM OVC060 09/03 A3001 RMK AO2 SLP165 T00890028 58005
Loading
Personal Weather Stations






























Interactive Weather Map
Tropical Storm Tracking
New forecast layout! Learn more

10-Day Weather Forecast

Advertisements
Track Severe Weather on mobile